logo
Rechercher aéroport 
image banner adimage banner adimage banner ad
image banner ad

MMZC - Zacatecas Aeropuerto Internacional Gral. Leobardo C. Ruiz

Situé à Zacatecas, Mexico

ICAO - MMZC, IATA - ZCL

Données fournies par Airmate  

Information générale

Coordonnées: N22°53'51" W102°41'9"
Élévation : 7126 feet MSL.
 
Voir autres Aéroports à Zacatecas

Données opérationnelles

Special qualification required
Heure actuelle UTC:
Heure actuelle locale:
Météo
METAR: MMZC 201040Z E00000KT 8SM FEW050 15/02 A3020 RMK 8/100 HZY
TAF: TAF MMZC 200446Z 2006/2106 16005KT 6SM HZ SCT200 TX32/2021Z TN13/2012Z FM201800 08010KT P6SM SCT050 SCT200 TEMPO 2102/2106 6SM -TSRA BKN020CB
Voir NOTAMs / SUP AIP / TFR affectant cet aéroport [VIEW]
Fréquences de communication: [VIEW]

Pistes:

Identifiant RWYQFULongueur (ft)Largeur (ft)SurfaceLDA (ft)
0228°9843148ASP
20208°9843148ASP

Coordonnées de l'aéroport

Adresse: Zacatecas Mexico

Vue satellite de MMZC